sensor_id;sensor_type;location;lat;lon;timestamp;pressure;altitude;pressure_sealevel;temperature
50496;BMP280;38806;51.554;5.704;2022-10-16T00:00:09;100704.28;;;12.42
50496;BMP280;38806;51.554;5.704;2022-10-16T00:02:09;100649.81;;;12.60
50496;BMP280;38806;51.554;5.704;2022-10-16T00:04:10;100667.25;;;12.54
50496;BMP280;38806;51.554;5.704;2022-10-16T00:06:10;100629.22;;;12.63
50496;BMP280;38806;51.554;5.704;2022-10-16T00:08:12;100651.78;;;12.60
50496;BMP280;38806;51.554;5.704;2022-10-16T00:10:13;100650.78;;;12.57
50496;BMP280;38806;51.554;5.704;2022-10-16T00:12:13;100656.94;;;12.52
50496;BMP280;38806;51.554;5.704;2022-10-16T00:14:15;100576.19;;;12.77
50496;BMP280;38806;51.554;5.704;2022-10-16T00:16:16;100626.53;;;12.63
50496;BMP280;38806;51.554;5.704;2022-10-16T00:18:16;100612.75;;;12.66
50496;BMP280;38806;51.554;5.704;2022-10-16T00:20:16;100606.88;;;12.68
50496;BMP280;38806;51.554;5.704;2022-10-16T00:22:17;100664.78;;;12.50
50496;BMP280;38806;51.554;5.704;2022-10-16T00:24:17;100649.59;;;12.53
50496;BMP280;38806;51.554;5.704;2022-10-16T00:26:18;100660.41;;;12.47
50496;BMP280;38806;51.554;5.704;2022-10-16T00:28:18;100650.34;;;12.53
50496;BMP280;38806;51.554;5.704;2022-10-16T00:30:18;100648.09;;;12.52
50496;BMP280;38806;51.554;5.704;2022-10-16T00:32:19;100676.78;;;12.44
50496;BMP280;38806;51.554;5.704;2022-10-16T00:34:20;100670.22;;;12.45
50496;BMP280;38806;51.554;5.704;2022-10-16T00:36:23;100663.81;;;12.48
50496;BMP280;38806;51.554;5.704;2022-10-16T00:38:23;100688.84;;;12.37
50496;BMP280;38806;51.554;5.704;2022-10-16T00:40:24;100708.22;;;12.30
50496;BMP280;38806;51.554;5.704;2022-10-16T00:42:24;100740.78;;;12.15
50496;BMP280;38806;51.554;5.704;2022-10-16T00:44:48;100740.78;;;12.15
50496;BMP280;38806;51.554;5.704;2022-10-16T00:46:50;100685.16;;;12.29
50496;BMP280;38806;51.554;5.704;2022-10-16T00:49:05;100723.41;;;12.22
50496;BMP280;38806;51.554;5.704;2022-10-16T00:51:06;100773.63;;;12.02
50496;BMP280;38806;51.554;5.704;2022-10-16T00:53:07;100716.03;;;12.22
50496;BMP280;38806;51.554;5.704;2022-10-16T00:55:08;100747.44;;;12.09
50496;BMP280;38806;51.554;5.704;2022-10-16T00:57:09;100753.53;;;12.04
50496;BMP280;38806;51.554;5.704;2022-10-16T00:59:33;100789.53;;;11.95
50496;BMP280;38806;51.554;5.704;2022-10-16T01:01:34;100739.09;;;12.07
50496;BMP280;38806;51.554;5.704;2022-10-16T01:03:36;100780.50;;;11.92
50496;BMP280;38806;51.554;5.704;2022-10-16T01:05:45;100776.31;;;11.91
50496;BMP280;38806;51.554;5.704;2022-10-16T01:10:26;100755.72;;;11.94
50496;BMP280;38806;51.554;5.704;2022-10-16T01:12:49;100778.25;;;11.85
50496;BMP280;38806;51.554;5.704;2022-10-16T01:15:10;100758.41;;;11.88
50496;BMP280;38806;51.554;5.704;2022-10-16T01:17:16;100759.88;;;11.84
50496;BMP280;38806;51.554;5.704;2022-10-16T01:19:39;100767.69;;;11.82
50496;BMP280;38806;51.554;5.704;2022-10-16T01:21:47;100772.09;;;11.79
50496;BMP280;38806;51.554;5.704;2022-10-16T01:26:24;100764.50;;;11.78
50496;BMP280;38806;51.554;5.704;2022-10-16T01:28:34;100698.66;;;12.01
50496;BMP280;38806;51.554;5.704;2022-10-16T01:30:40;100723.38;;;11.94
50496;BMP280;38806;51.554;5.704;2022-10-16T01:33:05;100721.66;;;11.96
50496;BMP280;38806;51.554;5.704;2022-10-16T01:35:18;100683.91;;;12.08
50496;BMP280;38806;51.554;5.704;2022-10-16T01:37:31;100725.09;;;11.97
50496;BMP280;38806;51.554;5.704;2022-10-16T01:39:34;100716.28;;;11.96
50496;BMP280;38806;51.554;5.704;2022-10-16T01:41:39;100754.50;;;11.84
50496;BMP280;38806;51.554;5.704;2022-10-16T01:43:45;100711.13;;;11.93
50496;BMP280;38806;51.554;5.704;2022-10-16T01:45:47;100698.88;;;12.03
50496;BMP280;38806;51.554;5.704;2022-10-16T01:47:49;100707.94;;;12.00
50496;BMP280;38806;51.554;5.704;2022-10-16T01:49:51;100716.78;;;12.00
50496;BMP280;38806;51.554;5.704;2022-10-16T01:51:55;100675.63;;;12.11
50496;BMP280;38806;51.554;5.704;2022-10-16T01:53:58;100707.94;;;12.00
50496;BMP280;38806;51.554;5.704;2022-10-16T01:56:01;100684.69;;;12.02
50496;BMP280;38806;51.554;5.704;2022-10-16T01:58:05;100666.78;;;12.05
50496;BMP280;38806;51.554;5.704;2022-10-16T02:00:10;100689.09;;;12.00
50496;BMP280;38806;51.554;5.704;2022-10-16T02:02:12;100638.34;;;12.15
50496;BMP280;38806;51.554;5.704;2022-10-16T02:04:21;100605.97;;;12.32
50496;BMP280;38806;51.554;5.704;2022-10-16T02:06:23;100597.88;;;12.38
50496;BMP280;38806;51.554;5.704;2022-10-16T02:08:28;100620.69;;;12.25
50496;BMP280;38806;51.554;5.704;2022-10-16T02:10:29;100542.44;;;12.53
50496;BMP280;38806;51.554;5.704;2022-10-16T02:12:33;100600.34;;;12.35
50496;BMP280;38806;51.554;5.704;2022-10-16T02:14:34;100578.22;;;12.43
50496;BMP280;38806;51.554;5.704;2022-10-16T02:16:44;100582.19;;;12.42
50496;BMP280;38806;51.554;5.704;2022-10-16T02:18:45;100605.03;;;12.35
50496;BMP280;38806;51.554;5.704;2022-10-16T02:20:53;100627.78;;;12.28
50496;BMP280;38806;51.554;5.704;2022-10-16T02:22:56;100584.13;;;12.41
50496;BMP280;38806;51.554;5.704;2022-10-16T02:27:06;100646.94;;;12.19
50496;BMP280;38806;51.554;5.704;2022-10-16T02:29:13;100616.31;;;12.28
50496;BMP280;38806;51.554;5.704;2022-10-16T02:31:22;100642.78;;;12.18
50496;BMP280;38806;51.554;5.704;2022-10-16T02:33:24;100588.31;;;12.37
50496;BMP280;38806;51.554;5.704;2022-10-16T02:35:26;100643.75;;;12.21
50496;BMP280;38806;51.554;5.704;2022-10-16T02:37:28;100657.00;;;12.13
50496;BMP280;38806;51.554;5.704;2022-10-16T02:39:28;100659.91;;;12.15
50496;BMP280;38806;51.554;5.704;2022-10-16T02:41:30;100679.25;;;12.08
50496;BMP280;38806;51.554;5.704;2022-10-16T02:43:30;100725.34;;;11.93
50496;BMP280;38806;51.554;5.704;2022-10-16T02:45:31;100728.75;;;11.94
50496;BMP280;38806;51.554;5.704;2022-10-16T02:47:31;100682.72;;;12.09
50496;BMP280;38806;51.554;5.704;2022-10-16T02:49:32;100685.88;;;12.07
50496;BMP280;38806;51.554;5.704;2022-10-16T02:51:32;100711.88;;;11.99
50496;BMP280;38806;51.554;5.704;2022-10-16T02:53:32;100706.00;;;12.00
50496;BMP280;38806;51.554;5.704;2022-10-16T02:55:33;100733.66;;;11.84
50496;BMP280;38806;51.554;5.704;2022-10-16T02:57:33;100743.91;;;11.80
50496;BMP280;38806;51.554;5.704;2022-10-16T02:59:34;100683.19;;;12.01
50496;BMP280;38806;51.554;5.704;2022-10-16T03:01:34;100707.19;;;11.94
50496;BMP280;38806;51.554;5.704;2022-10-16T03:03:34;100689.81;;;11.95
50496;BMP280;38806;51.554;5.704;2022-10-16T03:05:34;100730.25;;;11.84
50496;BMP280;38806;51.554;5.704;2022-10-16T03:07:35;100678.06;;;12.04
50496;BMP280;38806;51.554;5.704;2022-10-16T03:09:35;100743.72;;;11.84
50496;BMP280;38806;51.554;5.704;2022-10-16T03:11:35;100764.00;;;11.74
50496;BMP280;38806;51.554;5.704;2022-10-16T03:13:36;100696.91;;;11.98
50496;BMP280;38806;51.554;5.704;2022-10-16T03:15:36;100762.53;;;11.78
50496;BMP280;38806;51.554;5.704;2022-10-16T03:17:36;100756.91;;;11.82
50496;BMP280;38806;51.554;5.704;2022-10-16T03:19:36;100723.16;;;11.92
50496;BMP280;38806;51.554;5.704;2022-10-16T03:21:37;100738.78;;;11.88
50496;BMP280;38806;51.554;5.704;2022-10-16T03:23:37;100766.94;;;11.76
50496;BMP280;38806;51.554;5.704;2022-10-16T03:25:37;100793.63;;;11.68
50496;BMP280;38806;51.554;5.704;2022-10-16T03:27:38;100762.03;;;11.80
50496;BMP280;38806;51.554;5.704;2022-10-16T03:29:38;100758.41;;;11.83
50496;BMP280;38806;51.554;5.704;2022-10-16T03:31:38;100754.97;;;11.82
50496;BMP280;38806;51.554;5.704;2022-10-16T03:33:39;100717.50;;;11.95
50496;BMP280;38806;51.554;5.704;2022-10-16T03:35:39;100715.06;;;11.97
50496;BMP280;38806;51.554;5.704;2022-10-16T03:37:39;100709.66;;;12.03
50496;BMP280;38806;51.554;5.704;2022-10-16T03:39:39;100715.78;;;11.98
50496;BMP280;38806;51.554;5.704;2022-10-16T03:41:40;100705.50;;;12.02
50496;BMP280;38806;51.554;5.704;2022-10-16T03:43:40;100738.59;;;11.91
50496;BMP280;38806;51.554;5.704;2022-10-16T03:45:40;100748.84;;;11.87
50496;BMP280;38806;51.554;5.704;2022-10-16T03:47:40;100711.13;;;11.98
50496;BMP280;38806;51.554;5.704;2022-10-16T03:49:41;100728.28;;;11.95
50496;BMP280;38806;51.554;5.704;2022-10-16T03:51:41;100718.47;;;11.98
50496;BMP280;38806;51.554;5.704;2022-10-16T03:53:42;100719.72;;;11.97
50496;BMP280;38806;51.554;5.704;2022-10-16T03:55:42;100671.22;;;12.14
50496;BMP280;38806;51.554;5.704;2022-10-16T03:57:43;100685.19;;;12.12
50496;BMP280;38806;51.554;5.704;2022-10-16T03:59:43;100712.13;;;12.07
50496;BMP280;38806;51.554;5.704;2022-10-16T04:01:43;100710.13;;;12.07
50496;BMP280;38806;51.554;5.704;2022-10-16T04:03:44;100703.06;;;12.10
50496;BMP280;38806;51.554;5.704;2022-10-16T04:05:44;100687.59;;;12.16
50496;BMP280;38806;51.554;5.704;2022-10-16T04:07:44;100723.63;;;12.01
50496;BMP280;38806;51.554;5.704;2022-10-16T04:09:44;100667.50;;;12.22
50496;BMP280;38806;51.554;5.704;2022-10-16T04:11:45;100688.59;;;12.13
50496;BMP280;38806;51.554;5.704;2022-10-16T04:13:45;100705.75;;;12.10
50496;BMP280;38806;51.554;5.704;2022-10-16T04:15:45;100731.00;;;12.01
50496;BMP280;38806;51.554;5.704;2022-10-16T04:17:46;100707.72;;;12.09
50496;BMP280;38806;51.554;5.704;2022-10-16T04:19:46;100687.13;;;12.17
50496;BMP280;38806;51.554;5.704;2022-10-16T04:21:46;100696.19;;;12.14
50496;BMP280;38806;51.554;5.704;2022-10-16T04:23:47;100733.44;;;12.05
50496;BMP280;38806;51.554;5.704;2022-10-16T04:25:47;100734.19;;;12.05
50496;BMP280;38806;51.554;5.704;2022-10-16T04:27:47;100686.13;;;12.15
50496;BMP280;38806;51.554;5.704;2022-10-16T04:29:48;100714.59;;;12.10
50496;BMP280;38806;51.554;5.704;2022-10-16T04:31:48;100679.53;;;12.21
50496;BMP280;38806;51.554;5.704;2022-10-16T04:33:48;100674.38;;;12.23
50496;BMP280;38806;51.554;5.704;2022-10-16T04:35:56;100644.72;;;12.34
50496;BMP280;38806;51.554;5.704;2022-10-16T04:37:59;100671.47;;;12.27
50496;BMP280;38806;51.554;5.704;2022-10-16T04:39:59;100676.13;;;12.26
50496;BMP280;38806;51.554;5.704;2022-10-16T04:41:59;100690.06;;;12.25
50496;BMP280;38806;51.554;5.704;2022-10-16T04:44:00;100647.66;;;12.37
50496;BMP280;38806;51.554;5.704;2022-10-16T04:46:00;100668.25;;;12.34
50496;BMP280;38806;51.554;5.704;2022-10-16T04:48:01;100750.34;;;12.05
50496;BMP280;38806;51.554;5.704;2022-10-16T04:50:02;100686.13;;;12.26
50496;BMP280;38806;51.554;5.704;2022-10-16T04:52:02;100686.13;;;12.26
50496;BMP280;38806;51.554;5.704;2022-10-16T04:54:03;100741.06;;;12.06
50496;BMP280;38806;51.554;5.704;2022-10-16T04:56:03;100701.81;;;12.22
50496;BMP280;38806;51.554;5.704;2022-10-16T04:58:04;100717.06;;;12.19
50496;BMP280;38806;51.554;5.704;2022-10-16T05:00:05;100726.81;;;12.17
50496;BMP280;38806;51.554;5.704;2022-10-16T05:02:05;100728.31;;;12.18
50496;BMP280;38806;51.554;5.704;2022-10-16T05:04:06;100741.06;;;12.12
50496;BMP280;38806;51.554;5.704;2022-10-16T05:06:07;100751.31;;;12.08
50496;BMP280;38806;51.554;5.704;2022-10-16T05:08:07;100705.03;;;12.20
50496;BMP280;38806;51.554;5.704;2022-10-16T05:10:07;100765.53;;;12.02
50496;BMP280;38806;51.554;5.704;2022-10-16T05:12:08;100730.00;;;12.15
50496;BMP280;38806;51.554;5.704;2022-10-16T05:14:08;100716.78;;;12.23
50496;BMP280;38806;51.554;5.704;2022-10-16T05:16:08;100755.50;;;12.09
50496;BMP280;38806;51.554;5.704;2022-10-16T05:18:09;100746.44;;;12.12
50496;BMP280;38806;51.554;5.704;2022-10-16T05:20:09;100784.16;;;12.00
50496;BMP280;38806;51.554;5.704;2022-10-16T05:22:09;100774.38;;;12.09
50496;BMP280;38806;51.554;5.704;2022-10-16T05:24:10;100754.06;;;12.13
50496;BMP280;38806;51.554;5.704;2022-10-16T05:26:10;100764.84;;;12.13
50496;BMP280;38806;51.554;5.704;2022-10-16T05:28:10;100788.31;;;12.07
50496;BMP280;38806;51.554;5.704;2022-10-16T05:30:11;100773.41;;;12.12
50496;BMP280;38806;51.554;5.704;2022-10-16T05:32:11;100777.81;;;12.09
50496;BMP280;38806;51.554;5.704;2022-10-16T05:34:11;100774.38;;;12.09
50496;BMP280;38806;51.554;5.704;2022-10-16T05:36:12;100743.00;;;12.17
50496;BMP280;38806;51.554;5.704;2022-10-16T05:38:13;100788.34;;;12.01
50496;BMP280;38806;51.554;5.704;2022-10-16T05:40:14;100745.69;;;12.17
50496;BMP280;38806;51.554;5.704;2022-10-16T05:42:14;100749.63;;;12.16
50496;BMP280;38806;51.554;5.704;2022-10-16T05:44:14;100786.88;;;12.06
50496;BMP280;38806;51.554;5.704;2022-10-16T05:46:15;100792.00;;;12.04
50496;BMP280;38806;51.554;5.704;2022-10-16T05:48:16;100853.47;;;11.89
50496;BMP280;38806;51.554;5.704;2022-10-16T05:50:16;100815.03;;;11.99
50496;BMP280;38806;51.554;5.704;2022-10-16T05:52:16;100828.25;;;11.97
50496;BMP280;38806;51.554;5.704;2022-10-16T05:54:17;100834.41;;;11.98
50496;BMP280;38806;51.554;5.704;2022-10-16T05:56:17;100841.25;;;11.99
50496;BMP280;38806;51.554;5.704;2022-10-16T05:58:18;100811.66;;;12.10
50496;BMP280;38806;51.554;5.704;2022-10-16T06:00:18;100845.91;;;11.98
50496;BMP280;38806;51.554;5.704;2022-10-16T06:02:18;100815.81;;;12.11
50496;BMP280;38806;51.554;5.704;2022-10-16T06:04:19;100839.56;;;12.01
50496;BMP280;38806;51.554;5.704;2022-10-16T06:06:21;100865.75;;;11.95
50496;BMP280;38806;51.554;5.704;2022-10-16T06:08:22;100906.88;;;11.85
50496;BMP280;38806;51.554;5.704;2022-10-16T06:10:23;100903.44;;;11.84
50496;BMP280;38806;51.554;5.704;2022-10-16T06:12:23;100863.06;;;11.95
50496;BMP280;38806;51.554;5.704;2022-10-16T06:14:23;100867.69;;;11.95
50496;BMP280;38806;51.554;5.704;2022-10-16T06:16:25;100901.50;;;11.85
50496;BMP280;38806;51.554;5.704;2022-10-16T06:18:26;100907.38;;;11.83
50496;BMP280;38806;51.554;5.704;2022-10-16T06:20:27;100887.56;;;11.92
50496;BMP280;38806;51.554;5.704;2022-10-16T06:22:27;100879.22;;;11.95
50496;BMP280;38806;51.554;5.704;2022-10-16T06:24:27;100910.81;;;11.89
50496;BMP280;38806;51.554;5.704;2022-10-16T06:26:29;100967.53;;;11.69
50496;BMP280;38806;51.554;5.704;2022-10-16T06:28:29;100975.84;;;11.71
50496;BMP280;38806;51.554;5.704;2022-10-16T06:30:30;100967.56;;;11.75
50496;BMP280;38806;51.554;5.704;2022-10-16T06:32:30;101000.09;;;11.65
50496;BMP280;38806;51.554;5.704;2022-10-16T06:34:30;100988.09;;;11.66
50496;BMP280;38806;51.554;5.704;2022-10-16T06:36:31;100950.44;;;11.78
50496;BMP280;38806;51.554;5.704;2022-10-16T06:38:31;100915.47;;;11.89
50496;BMP280;38806;51.554;5.704;2022-10-16T06:40:31;100889.78;;;11.99
50496;BMP280;38806;51.554;5.704;2022-10-16T06:42:32;100957.84;;;11.83
50496;BMP280;38806;51.554;5.704;2022-10-16T06:44:32;100920.66;;;11.98
50496;BMP280;38806;51.554;5.704;2022-10-16T06:46:32;100989.63;;;11.79
50496;BMP280;38806;51.554;5.704;2022-10-16T06:48:32;100920.44;;;12.01
50496;BMP280;38806;51.554;5.704;2022-10-16T06:50:33;100939.28;;;12.01
50496;BMP280;38806;51.554;5.704;2022-10-16T06:52:34;100895.72;;;12.14
50496;BMP280;38806;51.554;5.704;2022-10-16T06:54:34;100906.25;;;12.12
50496;BMP280;38806;51.554;5.704;2022-10-16T06:56:35;100912.63;;;12.15
50496;BMP280;38806;51.554;5.704;2022-10-16T06:58:35;100904.81;;;12.22
50496;BMP280;38806;51.554;5.704;2022-10-16T07:00:36;100894.75;;;12.23
50496;BMP280;38806;51.554;5.704;2022-10-16T07:02:36;100852.91;;;12.44
50496;BMP280;38806;51.554;5.704;2022-10-16T07:04:36;100857.53;;;12.44
50496;BMP280;38806;51.554;5.704;2022-10-16T07:06:36;100875.19;;;12.39
50496;BMP280;38806;51.554;5.704;2022-10-16T07:08:39;100820.28;;;12.59
50496;BMP280;38806;51.554;5.704;2022-10-16T07:10:39;100805.31;;;12.69
50496;BMP280;38806;51.554;5.704;2022-10-16T07:12:40;100774.91;;;12.80
50496;BMP280;38806;51.554;5.704;2022-10-16T07:14:41;100800.88;;;12.77
50496;BMP280;38806;51.554;5.704;2022-10-16T07:16:41;100814.38;;;12.77
50496;BMP280;38806;51.554;5.704;2022-10-16T07:18:42;100799.91;;;12.86
50496;BMP280;38806;51.554;5.704;2022-10-16T07:20:45;100769.72;;;12.98
50496;BMP280;38806;51.554;5.704;2022-10-16T07:22:45;100759.41;;;13.02
50496;BMP280;38806;51.554;5.704;2022-10-16T07:24:46;100741.69;;;13.13
50496;BMP280;38806;51.554;5.704;2022-10-16T07:26:46;100751.75;;;13.12
50496;BMP280;38806;51.554;5.704;2022-10-16T07:28:46;100741.66;;;13.18
50496;BMP280;38806;51.554;5.704;2022-10-16T07:30:47;100756.16;;;13.21
50496;BMP280;38806;51.554;5.704;2022-10-16T07:32:47;100740.16;;;13.28
50496;BMP280;38806;51.554;5.704;2022-10-16T07:34:47;100746.53;;;13.31
50496;BMP280;38806;51.554;5.704;2022-10-16T07:36:49;100724.63;;;13.40
50496;BMP280;38806;51.554;5.704;2022-10-16T07:38:49;100678.13;;;13.58
50496;BMP280;38806;51.554;5.704;2022-10-16T07:41:00;100674.88;;;13.65
50496;BMP280;38806;51.554;5.704;2022-10-16T07:43:01;100648.50;;;13.77
50496;BMP280;38806;51.554;5.704;2022-10-16T07:45:02;100654.59;;;13.83
50496;BMP280;38806;51.554;5.704;2022-10-16T07:47:03;100639.56;;;13.88
50496;BMP280;38806;51.554;5.704;2022-10-16T07:49:03;100656.03;;;13.90
50496;BMP280;38806;51.554;5.704;2022-10-16T07:51:05;100646.88;;;13.98
50496;BMP280;38806;51.554;5.704;2022-10-16T07:53:06;100637.91;;;14.09
50496;BMP280;38806;51.554;5.704;2022-10-16T07:55:06;100634.66;;;14.16
50496;BMP280;38806;51.554;5.704;2022-10-16T07:57:07;100624.53;;;14.22
50496;BMP280;38806;51.554;5.704;2022-10-16T07:59:07;100626.69;;;14.29
50496;BMP280;38806;51.554;5.704;2022-10-16T08:01:10;100587.78;;;14.51
50496;BMP280;38806;51.554;5.704;2022-10-16T08:03:10;100579.34;;;14.55
50496;BMP280;38806;51.554;5.704;2022-10-16T08:05:11;100573.88;;;14.60
50496;BMP280;38806;51.554;5.704;2022-10-16T08:07:11;100552.78;;;14.78
50496;BMP280;38806;51.554;5.704;2022-10-16T08:09:11;100551.00;;;14.80
50496;BMP280;38806;51.554;5.704;2022-10-16T08:11:11;100558.31;;;14.85
50496;BMP280;38806;51.554;5.704;2022-10-16T08:13:12;100545.78;;;15.01
50496;BMP280;38806;51.554;5.704;2022-10-16T08:15:14;100459.38;;;15.42
50496;BMP280;38806;51.554;5.704;2022-10-16T08:17:15;100410.94;;;15.78
50496;BMP280;38806;51.554;5.704;2022-10-16T08:19:15;100317.63;;;16.36
50496;BMP280;38806;51.554;5.704;2022-10-16T08:21:17;100259.78;;;16.70
50496;BMP280;38806;51.554;5.704;2022-10-16T08:23:18;100293.25;;;16.72
50496;BMP280;38806;51.554;5.704;2022-10-16T08:25:18;100437.38;;;16.33
50496;BMP280;38806;51.554;5.704;2022-10-16T08:27:18;100500.84;;;16.30
50496;BMP280;38806;51.554;5.704;2022-10-16T08:29:18;100403.22;;;16.79
50496;BMP280;38806;51.554;5.704;2022-10-16T08:31:19;100456.59;;;16.76
50496;BMP280;38806;51.554;5.704;2022-10-16T08:33:20;100492.44;;;16.75
50496;BMP280;38806;51.554;5.704;2022-10-16T08:35:20;100529.16;;;16.89
50496;BMP280;38806;51.554;5.704;2022-10-16T08:37:20;100526.63;;;17.12
50496;BMP280;38806;51.554;5.704;2022-10-16T08:39:21;100479.22;;;17.49
50496;BMP280;38806;51.554;5.704;2022-10-16T08:43:48;100653.78;;;17.47
50496;BMP280;38806;51.554;5.704;2022-10-16T08:46:06;100711.16;;;17.57
50496;BMP280;38806;51.554;5.704;2022-10-16T08:50:39;100874.88;;;17.55
50496;BMP280;38806;51.554;5.704;2022-10-16T08:52:42;100900.66;;;17.62
50496;BMP280;38806;51.554;5.704;2022-10-16T08:54:45;100847.50;;;17.95
50496;BMP280;38806;51.554;5.704;2022-10-16T08:56:47;101016.38;;;17.63
50496;BMP280;38806;51.554;5.704;2022-10-16T08:58:48;101049.00;;;17.63
50496;BMP280;38806;51.554;5.704;2022-10-16T09:00:56;100961.06;;;18.08
50496;BMP280;38806;51.554;5.704;2022-10-16T09:08:28;101150.34;;;17.82
50496;BMP280;38806;51.554;5.704;2022-10-16T09:10:43;101035.03;;;18.19
50496;BMP280;38806;51.554;5.704;2022-10-16T09:15:10;101097.25;;;18.15
50496;BMP280;38806;51.554;5.704;2022-10-16T09:17:32;101143.03;;;18.04
50496;BMP280;38806;51.554;5.704;2022-10-16T09:19:43;100990.28;;;18.62
50496;BMP280;38806;51.554;5.704;2022-10-16T09:21:45;100969.94;;;18.84
50496;BMP280;38806;51.554;5.704;2022-10-16T09:23:46;100912.38;;;19.23
50496;BMP280;38806;51.554;5.704;2022-10-16T09:25:49;101049.19;;;18.93
50496;BMP280;38806;51.554;5.704;2022-10-16T09:27:52;101070.84;;;18.91
50496;BMP280;38806;51.554;5.704;2022-10-16T09:29:53;101024.84;;;19.16
50496;BMP280;38806;51.554;5.704;2022-10-16T09:31:54;101127.13;;;18.89
50496;BMP280;38806;51.554;5.704;2022-10-16T09:34:02;101191.38;;;18.63
50496;BMP280;38806;51.554;5.704;2022-10-16T09:36:06;100953.78;;;19.50
50496;BMP280;38806;51.554;5.704;2022-10-16T09:38:07;101138.88;;;18.97
50496;BMP280;38806;51.554;5.704;2022-10-16T09:40:32;101088.31;;;19.17
50496;BMP280;38806;51.554;5.704;2022-10-16T09:42:35;101008.22;;;19.63
50496;BMP280;38806;51.554;5.704;2022-10-16T09:44:37;101037.91;;;19.67
50496;BMP280;38806;51.554;5.704;2022-10-16T09:46:37;100977.94;;;19.97
50496;BMP280;38806;51.554;5.704;2022-10-16T09:48:44;101196.84;;;19.18
50496;BMP280;38806;51.554;5.704;2022-10-16T09:50:55;101442.16;;;18.26
50496;BMP280;38806;51.554;5.704;2022-10-16T09:53:12;101356.16;;;18.30
50496;BMP280;38806;51.554;5.704;2022-10-16T09:55:16;101138.53;;;19.00
50496;BMP280;38806;51.554;5.704;2022-10-16T09:57:17;101065.41;;;19.40
50496;BMP280;38806;51.554;5.704;2022-10-16T09:59:19;101105.78;;;19.42
50496;BMP280;38806;51.554;5.704;2022-10-16T10:01:21;100972.50;;;20.05
50496;BMP280;38806;51.554;5.704;2022-10-16T10:03:40;101144.91;;;19.73
50496;BMP280;38806;51.554;5.704;2022-10-16T10:05:47;101072.28;;;20.06
50496;BMP280;38806;51.554;5.704;2022-10-16T10:07:55;101087.19;;;20.05
50496;BMP280;38806;51.554;5.704;2022-10-16T10:09:57;101054.09;;;20.16
50496;BMP280;38806;51.554;5.704;2022-10-16T10:11:58;100878.66;;;20.86
50496;BMP280;38806;51.554;5.704;2022-10-16T10:14:08;100935.88;;;20.99
50496;BMP280;38806;51.554;5.704;2022-10-16T10:16:10;100867.97;;;21.53
50496;BMP280;38806;51.554;5.704;2022-10-16T10:18:21;100852.78;;;21.84
50496;BMP280;38806;51.554;5.704;2022-10-16T10:20:32;101072.72;;;21.31
50496;BMP280;38806;51.554;5.704;2022-10-16T10:22:44;101007.88;;;21.64
50496;BMP280;38806;51.554;5.704;2022-10-16T10:24:56;101068.00;;;21.32
50496;BMP280;38806;51.554;5.704;2022-10-16T10:27:10;100997.31;;;21.53
50496;BMP280;38806;51.554;5.704;2022-10-16T10:29:24;101223.81;;;20.56
50496;BMP280;38806;51.554;5.704;2022-10-16T10:31:32;100848.88;;;21.45
50496;BMP280;38806;51.554;5.704;2022-10-16T10:41:01;100924.88;;;21.14
50496;BMP280;38806;51.554;5.704;2022-10-16T10:45:41;100822.81;;;20.96
50496;BMP280;38806;51.554;5.704;2022-10-16T10:52:54;100752.72;;;22.52
50496;BMP280;38806;51.554;5.704;2022-10-16T10:57:13;101078.72;;;22.00
50496;BMP280;38806;51.554;5.704;2022-10-16T11:06:36;101048.41;;;21.98
50496;BMP280;38806;51.554;5.704;2022-10-16T11:08:59;101268.84;;;21.67
50496;BMP280;38806;51.554;5.704;2022-10-16T11:11:15;101077.06;;;21.97
50496;BMP280;38806;51.554;5.704;2022-10-16T11:15:32;101226.88;;;21.72
50496;BMP280;38806;51.554;5.704;2022-10-16T11:17:39;101188.81;;;21.99
50496;BMP280;38806;51.554;5.704;2022-10-16T11:19:48;101383.09;;;22.35
50496;BMP280;38806;51.554;5.704;2022-10-16T11:22:04;101286.75;;;22.53
50496;BMP280;38806;51.554;5.704;2022-10-16T11:24:16;101419.56;;;22.75
50496;BMP280;38806;51.554;5.704;2022-10-16T11:26:25;101559.81;;;22.49
50496;BMP280;38806;51.554;5.704;2022-10-16T11:28:48;101567.31;;;22.71
50496;BMP280;38806;51.554;5.704;2022-10-16T11:30:55;101577.50;;;23.09
50496;BMP280;38806;51.554;5.704;2022-10-16T11:33:13;101822.00;;;22.67
50496;BMP280;38806;51.554;5.704;2022-10-16T11:35:28;101920.06;;;22.46
50496;BMP280;38806;51.554;5.704;2022-10-16T11:37:43;101818.56;;;22.02
50496;BMP280;38806;51.554;5.704;2022-10-16T11:39:46;101692.19;;;21.70
50496;BMP280;38806;51.554;5.704;2022-10-16T11:44:44;101564.78;;;21.33
50496;BMP280;38806;51.554;5.704;2022-10-16T11:46:20;101467.59;;;21.55
50496;BMP280;38806;51.554;5.704;2022-10-16T11:48:31;101500.84;;;21.74
50496;BMP280;38806;51.554;5.704;2022-10-16T11:50:40;101270.41;;;22.63
50496;BMP280;38806;51.554;5.704;2022-10-16T11:52:52;101651.16;;;21.21
50496;BMP280;38806;51.554;5.704;2022-10-16T11:57:10;101735.00;;;20.63
50496;BMP280;38806;51.554;5.704;2022-10-16T12:03:35;101220.94;;;20.77
50496;BMP280;38806;51.554;5.704;2022-10-16T12:05:51;101112.31;;;20.77
50496;BMP280;38806;51.554;5.704;2022-10-16T12:08:04;101196.94;;;20.32
50496;BMP280;38806;51.554;5.704;2022-10-16T12:10:18;101120.28;;;20.37
50496;BMP280;38806;51.554;5.704;2022-10-16T12:14:37;101220.63;;;20.01
50496;BMP280;38806;51.554;5.704;2022-10-16T12:17:43;101075.16;;;20.74
50496;BMP280;38806;51.554;5.704;2022-10-16T12:19:20;101128.00;;;20.77
50496;BMP280;38806;51.554;5.704;2022-10-16T12:21:30;101196.25;;;21.43
50496;BMP280;38806;51.554;5.704;2022-10-16T12:23:32;101407.94;;;21.76
50496;BMP280;38806;51.554;5.704;2022-10-16T12:25:34;101581.03;;;21.82
50496;BMP280;38806;51.554;5.704;2022-10-16T12:27:35;101613.47;;;21.63
50496;BMP280;38806;51.554;5.704;2022-10-16T12:29:38;101708.19;;;21.37
50496;BMP280;38806;51.554;5.704;2022-10-16T12:31:44;101524.66;;;22.02
50496;BMP280;38806;51.554;5.704;2022-10-16T12:34:02;101193.53;;;24.14
50496;BMP280;38806;51.554;5.704;2022-10-16T12:36:32;101673.00;;;23.33
50496;BMP280;38806;51.554;5.704;2022-10-16T12:38:53;101650.06;;;24.33